Time;durP1;ratioP1;P1;durP2;ratioP2;P2;SDS_P1;SDS_P2;PMS_P1;PMS_P2;Temp;Humidity;BMP_temperature;BMP_pressure;BME280_temperature;BME280_humidity;BME280_pressure;Samples;Min_cycle;Max_cycle;Signal;HPM_P1;HPM_P2
2022/12/28 00:01:55;;;;;;;30.30;16.50;;;;;;;-0.68;88.08;100750.22;4867336;28;20046;-63
2022/12/28 00:07:51;;;;;;;26.77;13.98;;;;;;;-0.35;87.65;100759.97;4951704;27;20077;-62
2022/12/28 00:10:34;;;;;;;25.23;12.80;;;;;;;-0.23;86.99;100772.38;4946436;27;20208;-64
2022/12/28 00:13:43;;;;;;;14.55;8.05;;;;;;;-0.22;87.02;100751.00;4925973;28;20088;-66
2022/12/28 00:16:33;;;;;;;9.13;5.53;;;;;;;-0.08;86.89;100760.06;4911486;28;20039;-65
2022/12/28 00:19:14;;;;;;;11.90;6.60;;;;;;;-0.14;86.36;100762.41;4900089;27;20048;-65
2022/12/28 00:21:57;;;;;;;12.73;8.13;;;;;;;-0.29;85.89;100754.19;4925190;27;20049;-65
2022/12/28 00:24:43;;;;;;;16.30;7.45;;;;;;;-0.24;85.89;100763.78;4946706;28;20044;-62
2022/12/28 00:27:26;;;;;;;16.80;9.05;;;;;;;-0.30;85.90;100772.97;4931220;27;20043;-63
2022/12/28 00:30:12;;;;;;;13.18;7.35;;;;;;;-0.36;85.79;100767.63;4920612;28;20047;-64
2022/12/28 00:33:16;;;;;;;12.73;6.50;;;;;;;-0.31;86.70;100773.78;4973133;27;20188;-66
2022/12/28 00:36:09;;;;;;;11.45;6.85;;;;;;;-0.35;86.92;100743.69;4837124;28;20332;-65
2022/12/28 00:44:29;;;;;;;14.48;7.20;;;;;;;0.09;85.98;100758.06;4907712;28;20549;-63
2022/12/28 00:47:25;;;;;;;11.05;7.30;;;;;;;0.20;85.91;100755.84;4916119;28;20057;-64
2022/12/28 00:50:03;;;;;;;12.77;7.05;;;;;;;0.33;85.36;100752.88;4879954;28;20056;-63
2022/12/28 00:52:44;;;;;;;14.07;7.40;;;;;;;0.34;84.69;100749.47;4924168;28;20067;-65
2022/12/28 00:55:42;;;;;;;12.43;6.85;;;;;;;0.45;84.48;100756.66;4914972;28;20041;-63
2022/12/28 00:58:29;;;;;;;12.57;6.72;;;;;;;0.52;84.40;100748.31;4912096;28;20052;-63
2022/12/28 01:01:24;;;;;;;13.10;6.55;;;;;;;0.60;83.71;100736.56;4892473;28;20048;-63
2022/12/28 01:04:13;;;;;;;11.70;6.75;;;;;;;0.69;82.76;100736.88;4937390;28;20253;-63
2022/12/28 01:09:44;;;;;;;9.48;6.57;;;;;;;0.95;82.50;100734.22;4900341;28;20392;-63
2022/12/28 01:12:27;;;;;;;11.18;5.97;;;;;;;1.02;82.01;100710.41;4962193;27;20114;-62
2022/12/28 01:15:12;;;;;;;8.98;5.28;;;;;;;0.97;81.52;100691.41;4980332;27;20039;-61
2022/12/28 01:23:40;;;;;;;10.77;5.35;;;;;;;1.32;79.66;100694.97;4918033;27;20082;-59
2022/12/28 01:26:25;;;;;;;7.60;4.78;;;;;;;1.31;79.29;100687.22;4952578;28;20069;-60
2022/12/28 01:29:19;;;;;;;9.82;5.65;;;;;;;1.50;79.40;100694.63;4938593;27;20035;-60
2022/12/28 01:35:10;;;;;;;8.48;4.60;;;;;;;1.83;78.07;100683.47;4946914;27;20069;-58
2022/12/28 01:37:58;;;;;;;7.72;4.85;;;;;;;2.03;77.33;100682.25;4968825;27;20619;-57
2022/12/28 01:40:31;;;;;;;8.07;4.40;;;;;;;2.25;76.02;100678.50;4962063;27;20077;-59
2022/12/28 01:43:15;;;;;;;7.35;4.88;;;;;;;2.64;75.48;100667.34;4972442;27;20296;-58
2022/12/28 01:46:06;;;;;;;6.85;4.28;;;;;;;2.92;73.39;100655.03;4958406;27;20039;-59
2022/12/28 01:48:55;;;;;;;6.43;3.70;;;;;;;2.86;72.53;100653.22;4968072;27;20048;-59
2022/12/28 01:51:52;;;;;;;4.50;3.20;;;;;;;2.70;71.76;100635.69;4952961;27;20043;-58
2022/12/28 01:54:34;;;;;;;8.57;4.55;;;;;;;2.71;71.94;100632.25;4976611;27;20043;-60
2022/12/28 01:57:24;;;;;;;7.82;4.00;;;;;;;2.61;70.77;100635.47;4953110;27;20047;-60
2022/12/28 02:03:31;;;;;;;6.72;3.75;;;;;;;2.14;70.67;100566.50;4966387;27;20100;-62
2022/12/28 02:09:21;;;;;;;5.07;3.40;;;;;;;2.16;70.67;100601.81;4953349;27;20044;-62
2022/12/28 02:12:24;;;;;;;5.15;3.67;;;;;;;2.05;70.89;100617.88;4973931;27;20094;-63
2022/12/28 02:15:17;;;;;;;10.25;5.50;;;;;;;2.03;71.01;100604.06;4923388;28;20346;-62
2022/12/28 02:17:57;;;;;;;14.30;8.45;;;;;;;2.15;71.31;100594.91;4869326;28;20665;-64
2022/12/28 02:20:43;;;;;;;6.80;4.35;;;;;;;2.29;71.37;100571.16;4939473;28;20941;-62
2022/12/28 02:23:58;;;;;;;10.00;3.75;;;;;;;2.55;71.95;100582.91;4958065;27;20039;-65
2022/12/28 02:27:04;;;;;;;9.48;4.75;;;;;;;2.84;72.15;100587.78;4928450;28;20056;-62
2022/12/28 02:30:16;;;;;;;7.57;4.53;;;;;;;2.87;70.75;100582.72;4941279;28;20048;-64
2022/12/28 02:33:02;;;;;;;12.82;6.35;;;;;;;2.47;69.93;100545.78;4913875;28;20066;-64
2022/12/28 02:35:40;;;;;;;10.77;6.35;;;;;;;2.56;70.35;100566.56;4944845;28;20065;-61
2022/12/28 02:41:43;;;;;;;10.38;5.25;;;;;;;2.38;71.67;100555.88;4960970;28;21446;-61
2022/12/28 02:50:56;;;;;;;;;;;;;;;1.95;71.83;100554.94;4960566;28;20066;-61
2022/12/28 02:56:05;;;;;;;7.90;5.55;;;;;;;1.97;73.17;100549.78;4961126;28;20131;-62
2022/12/28 02:57:25;;;;;;;12.75;5.88;;;;;;;2.00;73.36;100527.56;4960937;28;20103;-61
2022/12/28 03:03:43;;;;;;;14.48;6.88;;;;;;;2.12;73.30;100530.41;4972785;28;20127;-65
2022/12/28 03:09:48;;;;;;;10.10;6.22;;;;;;;1.98;73.36;100528.34;4962573;27;20064;-61
2022/12/28 03:12:35;;;;;;;;;;;;;;;1.85;73.38;100528.06;4920843;27;20093;-61
2022/12/28 03:15:34;;;;;;;13.90;6.53;;;;;;;1.78;73.79;100525.31;4969754;27;19920;-62
2022/12/28 03:33:35;;;;;;;13.98;7.93;;;;;;;1.80;73.64;100493.59;4933627;28;20508;-62
2022/12/28 03:36:58;;;;;;;14.63;8.20;;;;;;;1.64;73.86;100482.06;4929407;28;20044;-62
2022/12/28 03:39:51;;;;;;;11.83;7.20;;;;;;;1.68;74.00;100483.88;4915874;28;20179;-64
2022/12/28 03:45:51;;;;;;;13.93;5.78;;;;;;;1.44;73.06;100475.56;4930326;28;20040;-63
2022/12/28 03:49:00;;;;;;;11.18;5.30;;;;;;;1.37;73.49;100468.53;4928277;28;20115;-63
2022/12/28 03:51:48;;;;;;;9.15;4.93;;;;;;;1.24;73.44;100450.22;4889365;28;20094;-62
2022/12/28 03:54:34;;;;;;;8.57;4.60;;;;;;;1.29;72.92;100461.50;4915239;28;20073;-63
2022/12/28 03:57:25;;;;;;;9.77;4.20;;;;;;;1.33;73.65;100448.72;4923236;28;20056;-63
2022/12/28 04:00:08;;;;;;;5.88;3.90;;;;;;;1.40;74.16;100450.56;4920780;28;20053;-64
2022/12/28 04:02:59;;;;;;;8.57;3.65;;;;;;;1.48;74.00;100443.91;4912947;28;20485;-62
2022/12/28 04:05:48;;;;;;;6.70;3.78;;;;;;;1.53;73.80;100433.72;4908896;28;20059;-63
2022/12/28 04:11:27;;;;;;;6.00;3.35;;;;;;;1.42;73.43;100433.47;4902376;28;20592;-64
2022/12/28 04:14:13;;;;;;;8.05;4.07;;;;;;;1.33;73.32;100422.97;4924160;28;20048;-61
2022/12/28 04:16:53;;;;;;;7.38;3.80;;;;;;;1.26;73.24;100422.81;4929384;28;20044;-63
2022/12/28 04:19:59;;;;;;;5.75;3.35;;;;;;;1.25;73.36;100404.78;4922102;28;20052;-63
2022/12/28 04:22:45;;;;;;;7.80;3.70;;;;;;;1.22;72.96;100399.53;4900884;28;20525;-61
2022/12/28 04:25:31;;;;;;;6.95;3.17;;;;;;;1.26;73.27;100407.34;4918677;28;20060;-64
2022/12/28 04:28:26;;;;;;;8.05;3.20;;;;;;;1.20;73.06;100409.81;4949078;28;20047;-63
2022/12/28 04:31:16;;;;;;;4.65;3.08;;;;;;;1.26;73.40;100404.78;4910973;28;20046;-62
2022/12/28 04:33:55;;;;;;;8.50;3.20;;;;;;;1.28;73.42;100400.56;4940769;27;20078;-62
2022/12/28 04:36:37;;;;;;;7.50;3.70;;;;;;;1.28;72.96;100395.41;4950117;28;20122;-61
2022/12/28 04:39:38;;;;;;;9.77;4.57;;;;;;;1.15;72.50;100397.63;4904534;28;20104;-61
2022/12/28 04:42:31;;;;;;;7.65;3.45;;;;;;;1.14;72.79;100391.63;4942288;28;20153;-62
2022/12/28 04:48:00;;;;;;;6.53;3.20;;;;;;;1.25;73.00;100390.19;4927888;28;20097;-61
2022/12/28 04:50:45;;;;;;;4.88;2.70;;;;;;;1.27;72.68;100378.22;4934683;28;20046;-64
2022/12/28 04:53:32;;;;;;;8.05;2.83;;;;;;;1.25;72.89;100376.44;4894200;27;20048;-64
2022/12/28 04:56:17;;;;;;;4.65;2.50;;;;;;;1.23;72.78;100363.53;4951576;27;20040;-64
2022/12/28 04:59:08;;;;;;;10.48;4.47;;;;;;;1.22;73.27;100374.69;4940859;28;20068;-64
2022/12/28 05:01:51;;;;;;;6.25;2.97;;;;;;;1.19;73.55;100369.44;4926980;28;20051;-63
2022/12/28 05:04:39;;;;;;;;;;;;;;;1.12;72.86;100367.53;4941050;28;20305;-65
2022/12/28 05:07:28;;;;;;;5.20;2.53;;;;;;;1.07;72.99;100370.03;4944558;27;20002;-64
2022/12/28 05:10:40;;;;;;;3.85;2.45;;;;;;;1.07;73.36;100364.00;4944108;28;20345;-63
2022/12/28 05:16:24;;;;;;;4.65;2.30;;;;;;;1.03;72.93;100364.78;4894573;27;20230;-61
2022/12/28 05:19:13;;;;;;;5.35;2.17;;;;;;;0.97;73.09;100362.03;4875398;28;20328;-64
2022/12/28 05:21:52;;;;;;;3.53;2.05;;;;;;;1.01;73.16;100363.88;4872865;28;20059;-63
2022/12/28 05:24:39;;;;;;;4.00;2.17;;;;;;;0.95;73.15;100358.56;4944468;28;20082;-63
2022/12/28 05:27:21;;;;;;;4.53;2.20;;;;;;;0.97;73.22;100362.03;4907775;28;20406;-64
2022/12/28 05:34:07;;;;;;;4.22;2.60;;;;;;;0.79;74.51;100357.31;4930811;28;20101;-63
2022/12/28 05:40:35;;;;;;;5.00;2.55;;;;;;;0.54;74.38;100363.56;4919255;28;20485;-62
2022/12/28 05:43:12;;;;;;;5.75;2.78;;;;;;;0.46;74.53;100362.50;4927906;27;20065;-64
2022/12/28 05:48:50;;;;;;;6.10;3.03;;;;;;;0.31;74.82;100356.13;4948843;27;20070;-65
2022/12/28 05:51:31;;;;;;;5.70;3.05;;;;;;;0.19;74.88;100353.22;4911282;28;20061;-62
2022/12/28 05:54:17;;;;;;;5.32;3.20;;;;;;;0.19;75.05;100353.22;4943454;28;20042;-63
2022/12/28 05:57:11;;;;;;;10.45;3.30;;;;;;;0.17;76.29;100350.59;4904408;28;20068;-65
2022/12/28 05:59:50;;;;;;;7.65;3.20;;;;;;;-0.31;75.26;100299.63;4958024;28;20056;-64
2022/12/28 06:02:48;;;;;;;7.03;2.83;;;;;;;-0.18;75.06;100346.19;4924867;28;20047;-64
2022/12/28 06:08:31;;;;;;;6.40;3.60;;;;;;;-0.34;75.17;100360.31;4936576;27;20071;-62
2022/12/28 06:14:46;;;;;;;6.05;3.75;;;;;;;-0.68;75.37;100349.00;4931530;28;20070;-63
2022/12/28 06:17:59;;;;;;;5.63;3.35;;;;;;;-0.72;75.99;100357.47;4929842;28;20466;-62
2022/12/28 06:23:39;;;;;;;7.18;4.13;;;;;;;-0.74;76.78;100349.72;4884749;28;20183;-61
2022/12/28 06:26:24;;;;;;;7.97;4.50;;;;;;;-1.08;76.36;100301.63;4915122;28;20067;-62
2022/12/28 06:28:56;;;;;;;;;;;;;;;-0.77;77.62;100341.06;4955244;28;20315;-64
2022/12/28 06:31:55;;;;;;;7.93;3.90;;;;;;;-0.82;77.59;100329.75;4946159;28;19916;-64
2022/12/28 06:34:54;;;;;;;6.82;3.60;;;;;;;-0.91;77.60;100336.34;4959322;28;20047;-62
2022/12/28 06:37:51;;;;;;;9.05;3.90;;;;;;;-0.93;77.96;100337.13;4951970;28;20044;-61
2022/12/28 06:41:11;;;;;;;7.63;4.10;;;;;;;-0.94;78.51;100341.41;4941949;28;20313;-63
2022/12/28 06:43:52;;;;;;;14.10;8.00;;;;;;;-1.07;79.00;100316.19;4965487;27;20055;-64
2022/12/28 06:46:31;;;;;;;12.18;6.03;;;;;;;-1.02;78.40;100342.88;4929435;27;20050;-65
2022/12/28 06:49:06;;;;;;;15.27;7.60;;;;;;;-1.18;78.25;100351.72;4931944;28;20049;-65
2022/12/28 06:51:52;;;;;;;19.33;8.82;;;;;;;-1.21;78.82;100359.34;4959089;27;20039;-65
2022/12/28 06:57:48;;;;;;;14.05;6.57;;;;;;;-1.26;80.12;100357.44;4958191;27;20052;-62
2022/12/28 07:00:34;;;;;;;9.93;5.13;;;;;;;-1.26;80.16;100355.75;4892101;28;20306;-62
2022/12/28 07:03:22;;;;;;;8.80;4.63;;;;;;;-1.27;80.18;100353.13;4921170;28;20081;-64
2022/12/28 07:06:14;;;;;;;14.10;6.65;;;;;;;-1.25;80.29;100343.81;4942495;27;20039;-65
2022/12/28 07:09:08;;;;;;;20.45;9.38;;;;;;;-1.44;79.91;100327.84;4911342;28;20048;-60
2022/12/28 07:11:58;;;;;;;23.88;13.40;;;;;;;-1.29;80.36;100352.22;4948350;27;20202;-63
2022/12/28 07:14:42;;;;;;;24.45;13.32;;;;;;;-1.28;80.33;100348.84;4978368;27;20067;-65
2022/12/28 07:17:16;;;;;;;22.83;9.98;;;;;;;-1.68;80.07;100291.13;4956698;27;20099;-65
2022/12/28 07:19:54;;;;;;;18.38;10.05;;;;;;;-1.42;80.32;100350.94;4909841;27;20963;-65
2022/12/28 07:22:39;;;;;;;25.70;10.27;;;;;;;-1.62;80.37;100340.91;4949318;27;20078;-64
2022/12/28 07:25:42;;;;;;;135.45;48.92;;;;;;;-1.71;80.94;100343.16;4970081;27;20350;-66
2022/12/28 07:31:11;;;;;;;97.47;36.60;;;;;;;-1.83;82.29;100343.59;4964783;28;20063;-64
2022/12/28 07:33:52;;;;;;;85.68;33.17;;;;;;;-1.83;82.77;100343.59;4990398;27;20119;-64
2022/12/28 07:36:35;;;;;;;55.85;23.95;;;;;;;-1.93;83.32;100315.06;4954639;27;20055;-65
2022/12/28 07:39:22;;;;;;;52.22;20.10;;;;;;;-1.81;83.53;100341.97;4932764;27;20043;-65
2022/12/28 07:42:26;;;;;;;55.58;21.02;;;;;;;-1.84;83.33;100346.13;4979688;27;20589;-64
2022/12/28 07:45:09;;;;;;;54.72;21.25;;;;;;;-1.92;83.35;100335.59;4927625;27;20090;-67
2022/12/28 07:47:54;;;;;;;51.60;20.27;;;;;;;-1.94;83.47;100332.09;4884149;27;20130;-66
2022/12/28 07:50:50;;;;;;;36.60;14.48;;;;;;;-1.93;83.86;100333.84;4901713;28;20047;-67
2022/12/28 07:53:37;;;;;;;24.50;10.07;;;;;;;-1.91;83.91;100328.78;4942065;27;20363;-65
2022/12/28 07:56:25;;;;;;;32.03;13.00;;;;;;;-1.95;84.01;100322.66;4965346;27;20081;-65
2022/12/28 07:59:19;;;;;;;31.40;12.55;;;;;;;-2.02;83.93;100313.03;4950516;27;20044;-69
2022/12/28 08:02:18;;;;;;;28.00;11.73;;;;;;;-1.90;84.52;100326.25;4952165;27;20098;-64
2022/12/28 08:05:05;;;;;;;32.88;12.15;;;;;;;-1.88;84.80;100324.63;4960673;27;20070;-64
2022/12/28 08:07:57;;;;;;;24.95;10.20;;;;;;;-1.96;84.32;100316.69;4936467;27;20077;-66
2022/12/28 08:10:47;;;;;;;29.83;12.80;;;;;;;-2.02;83.99;100321.59;4921529;27;20114;-67
2022/12/28 08:13:29;;;;;;;27.92;12.20;;;;;;;-2.19;84.22;100297.09;4977358;27;20057;-66
2022/12/28 08:16:16;;;;;;;35.10;13.40;;;;;;;-2.03;84.47;100318.97;4944692;27;20051;-67
2022/12/28 08:19:18;;;;;;;26.13;10.93;;;;;;;-2.06;84.98;100313.75;4936923;27;20078;-62
2022/12/28 08:22:14;;;;;;;24.63;9.48;;;;;;;-1.97;84.70;100314.09;4891659;28;20062;-68
2022/12/28 08:25:12;;;;;;;28.95;10.45;;;;;;;-1.90;85.47;100316.00;4953333;28;20045;-65
2022/12/28 08:28:05;;;;;;;25.75;9.18;;;;;;;-1.93;85.28;100310.78;4951614;27;20057;-65
2022/12/28 08:30:43;;;;;;;24.77;9.60;;;;;;;-1.99;84.99;100310.59;4912718;27;20043;-68
2022/12/28 08:33:43;;;;;;;22.80;9.50;;;;;;;-1.99;85.14;100300.34;4953075;27;20040;-67
2022/12/28 08:36:33;;;;;;;18.85;7.70;;;;;;;-1.99;85.64;100285.00;4915562;28;20303;-64
2022/12/28 08:39:17;;;;;;;15.98;8.00;;;;;;;-1.94;85.02;100298.81;4951231;27;20047;-66
2022/12/28 08:42:18;;;;;;;20.92;10.00;;;;;;;-1.92;84.95;100299.75;4898654;28;20140;-65
2022/12/28 08:44:52;;;;;;;16.65;9.60;;;;;;;-1.92;85.12;100297.19;4969222;27;20040;-70
2022/12/28 08:47:28;;;;;;;19.52;8.45;;;;;;;-1.90;85.22;100298.09;4905219;28;20460;-69
2022/12/28 08:50:17;;;;;;;;;;;;;;;-1.85;85.33;100298.25;4941999;28;20078;-66
2022/12/28 08:53:02;;;;;;;11.65;6.63;;;;;;;-1.85;85.59;100299.13;4967835;27;19915;-66
2022/12/28 08:55:52;;;;;;;10.32;5.05;;;;;;;-1.83;85.88;100297.47;4954989;27;20048;-67
2022/12/28 09:01:37;;;;;;;6.40;4.00;;;;;;;-1.75;85.70;100305.41;4943872;27;20434;-69
2022/12/28 09:04:19;;;;;;;12.05;7.25;;;;;;;-1.80;85.83;100277.13;4954883;27;20047;-65
2022/12/28 09:07:01;;;;;;;12.88;6.82;;;;;;;-1.62;86.36;100296.44;4895158;28;20401;-68
2022/12/28 09:10:09;;;;;;;5.85;4.00;;;;;;;-1.76;86.19;100267.84;4990301;27;20063;-64
2022/12/28 09:12:53;;;;;;;10.10;3.50;;;;;;;-1.66;86.44;100289.50;4973017;27;20064;-65
2022/12/28 09:15:59;;;;;;;7.22;3.95;;;;;;;-1.62;87.29;100286.19;4941128;27;20046;-69
2022/12/28 09:18:43;;;;;;;11.07;5.30;;;;;;;-1.66;87.47;100289.50;4926624;27;20069;-67
2022/12/28 09:21:32;;;;;;;17.50;7.78;;;;;;;-1.67;87.67;100277.50;4969544;27;20059;-69
2022/12/28 09:24:32;;;;;;;19.35;8.73;;;;;;;-1.74;87.65;100272.19;4944678;27;20314;-70
2022/12/28 09:27:29;;;;;;;23.83;9.50;;;;;;;-1.73;87.93;100268.78;4962964;27;20097;-65
2022/12/28 09:30:12;;;;;;;20.38;8.23;;;;;;;-1.71;87.94;100260.31;4933565;27;20998;-67
2022/12/28 09:33:57;;;;;;;18.50;8.00;;;;;;;-1.74;88.01;100256.81;4920917;28;20048;-70
2022/12/28 09:36:13;;;;;;;15.55;7.57;;;;;;;-1.77;88.56;100251.59;4927232;28;20062;-63
2022/12/28 09:38:49;;;;;;;14.25;7.22;;;;;;;-2.09;88.50;100206.13;4973067;27;20119;-66
2022/12/28 09:41:48;;;;;;;11.70;6.43;;;;;;;-1.90;88.72;100249.44;4910135;27;20047;-65
2022/12/28 09:44:49;;;;;;;11.95;6.28;;;;;;;-1.93;88.79;100249.34;4971023;27;20054;-66
2022/12/28 09:47:35;;;;;;;14.70;7.57;;;;;;;-1.95;89.29;100245.84;4953899;27;20054;-68
2022/12/28 09:50:34;;;;;;;13.02;7.80;;;;;;;-2.20;88.89;100234.78;4954646;27;20039;-68
2022/12/28 09:53:38;;;;;;;16.50;7.90;;;;;;;-2.19;89.53;100241.63;4929070;28;20172;-66
2022/12/28 09:56:25;;;;;;;13.52;7.63;;;;;;;-2.27;89.51;100227.72;4955528;27;20161;-63
2022/12/28 09:59:26;;;;;;;14.93;7.70;;;;;;;-2.40;90.03;100194.81;4948252;27;20083;-65
2022/12/28 10:02:05;;;;;;;10.57;6.43;;;;;;;-2.33;90.33;100195.91;4967869;27;20043;-66
2022/12/28 10:05:26;;;;;;;13.45;7.43;;;;;;;-2.22;90.63;100215.06;4957880;27;20043;-70
2022/12/28 10:08:35;;;;;;;13.98;6.93;;;;;;;-2.36;90.14;100199.25;4969768;27;20119;-63
2022/12/28 10:11:43;;;;;;;16.92;8.73;;;;;;;-2.27;90.73;100214.03;4898957;27;20048;-66
2022/12/28 10:20:29;;;;;;;11.30;6.13;;;;;;;-2.28;91.04;100199.50;4954254;28;20059;-63
2022/12/28 10:23:07;;;;;;;14.25;7.38;;;;;;;-2.25;91.12;100199.59;4934117;27;20048;-64
2022/12/28 10:26:20;;;;;;;14.43;7.10;;;;;;;-2.32;91.20;100190.84;4945494;28;20064;-65
2022/12/28 10:29:36;;;;;;;12.48;6.60;;;;;;;-2.65;90.88;100142.81;4938494;28;20145;-68
2022/12/28 10:32:53;;;;;;;13.40;6.40;;;;;;;-2.71;90.84;100132.38;4959140;28;20054;-67
2022/12/28 10:35:58;;;;;;;15.70;7.13;;;;;;;-2.44;91.06;100168.28;4942146;28;20097;-69
2022/12/28 10:38:55;;;;;;;12.60;6.82;;;;;;;-2.42;90.80;100179.44;4884172;28;20051;-66
2022/12/28 10:41:39;;;;;;;13.75;6.72;;;;;;;-2.43;90.82;100187.03;4950715;28;20040;-66
2022/12/28 10:47:28;;;;;;;14.27;6.28;;;;;;;-2.48;91.29;100176.66;4930438;28;20055;-65
2022/12/28 10:50:34;;;;;;;15.32;6.88;;;;;;;-2.62;91.36;100163.41;4909654;28;20468;-67
2022/12/28 10:53:21;;;;;;;15.68;8.50;;;;;;;-2.51;92.13;100180.81;4911354;28;20096;-67
2022/12/28 10:56:23;;;;;;;21.20;10.98;;;;;;;-2.51;91.92;100180.81;4933503;28;20047;-69
2022/12/28 10:59:45;;;;;;;21.05;10.18;;;;;;;-2.53;92.20;100177.31;4937225;28;20111;-66
2022/12/28 11:05:33;;;;;;;19.17;9.50;;;;;;;-2.44;92.38;100167.41;4951580;28;20063;-62
2022/12/28 11:08:20;;;;;;;19.73;9.32;;;;;;;-2.45;92.18;100161.41;4969407;28;20051;-62
2022/12/28 11:14:09;;;;;;;15.57;9.00;;;;;;;-2.50;92.36;100167.19;4883778;28;20047;-64
2022/12/28 11:16:56;;;;;;;13.80;8.02;;;;;;;-2.48;92.75;100170.66;4934355;28;20051;-67
2022/12/28 11:19:48;;;;;;;16.27;7.70;;;;;;;-2.42;93.24;100175.97;4874316;28;20081;-66
2022/12/28 11:23:18;;;;;;;12.55;7.65;;;;;;;-2.50;92.54;100162.06;4895133;28;20056;-65
2022/12/28 11:26:00;;;;;;;12.80;6.53;;;;;;;-2.53;92.84;100162.81;4936159;28;20060;-68
2022/12/28 11:28:50;;;;;;;10.03;6.27;;;;;;;-2.87;93.04;100117.28;4952339;28;20837;-66
2022/12/28 11:31:52;;;;;;;11.00;6.82;;;;;;;-2.89;93.31;100112.16;4976910;28;20152;-65
2022/12/28 11:34:33;;;;;;;11.93;6.80;;;;;;;-2.52;93.43;100163.69;4945901;27;20072;-65
2022/12/28 11:37:37;;;;;;;18.77;8.88;;;;;;;-2.47;93.42;100157.94;4941569;28;20089;-69
2022/12/28 11:40:55;;;;;;;54.85;24.55;;;;;;;-2.46;93.43;100158.81;4894309;28;20048;-65
2022/12/28 11:44:08;;;;;;;39.67;18.65;;;;;;;-2.52;93.47;100144.13;4949892;28;20039;-66
2022/12/28 11:47:21;;;;;;;16.98;9.43;;;;;;;-2.69;92.88;100140.97;4891607;28;20067;-64
2022/12/28 11:50:38;;;;;;;15.35;8.40;;;;;;;-2.58;93.90;100137.91;4967470;28;20071;-63
2022/12/28 11:53:33;;;;;;;;;;;;;;;-2.35;94.59;100147.22;4934652;28;20043;-65
2022/12/28 11:56:23;;;;;;;13.38;7.38;;;;;;;-2.35;94.26;100147.22;4876408;28;19916;-65
2022/12/28 11:59:29;;;;;;;10.05;5.60;;;;;;;-2.50;93.73;100141.59;4968215;28;20059;-67
2022/12/28 12:02:08;;;;;;;12.13;6.22;;;;;;;-2.47;94.26;100141.69;4914181;28;20066;-66
2022/12/28 12:05:51;;;;;;;9.88;6.18;;;;;;;-2.42;94.13;100145.28;4934361;28;20034;-66
2022/12/28 12:08:51;;;;;;;12.43;7.53;;;;;;;-2.46;93.50;100143.44;4929995;28;20107;-66
2022/12/28 12:11:58;;;;;;;9.00;6.05;;;;;;;-2.96;92.98;100078.66;4933727;28;20053;-65
2022/12/28 12:14:46;;;;;;;16.85;10.57;;;;;;;-2.53;94.48;100136.38;4919623;28;20093;-66
2022/12/28 12:17:33;;;;;;;10.52;6.65;;;;;;;-2.37;94.64;100138.66;4896633;28;20103;-65
2022/12/28 12:20:26;;;;;;;13.88;7.15;;;;;;;-2.33;94.22;100137.91;4933755;28;20036;-65
2022/12/28 12:23:58;;;;;;;;;;;;;;;;;;;;;
2022/12/28 12:26:48;;;;;;;9.60;4.68;;;;;;;-2.22;93.96;100128.91;4933137;28;20048;-67
2022/12/28 12:29:45;;;;;;;10.32;5.18;;;;;;;-2.21;93.63;100125.53;4888403;28;20044;-69
2022/12/28 12:32:33;;;;;;;10.00;5.00;;;;;;;-2.13;93.05;100133.47;4876172;28;20049;-65
2022/12/28 12:35:17;;;;;;;12.57;5.90;;;;;;;-2.09;92.83;100129.31;4870935;28;20056;-68
2022/12/28 12:38:03;;;;;;;15.77;6.32;;;;;;;-2.00;92.87;100134.72;4942871;28;20093;-67
2022/12/28 12:41:21;;;;;;;15.27;7.55;;;;;;;-2.03;92.46;100129.50;4930814;28;20079;-70
2022/12/28 12:44:36;;;;;;;15.80;8.60;;;;;;;-2.05;92.07;100115.78;4943789;28;20041;-65
2022/12/28 12:48:07;;;;;;;17.70;9.68;;;;;;;-2.14;91.62;100110.38;4930769;28;20056;-66
2022/12/28 12:51:17;;;;;;;17.83;8.93;;;;;;;-2.23;91.36;100111.81;4834955;28;20041;-68
2022/12/28 12:54:20;;;;;;;14.93;8.45;;;;;;;-2.25;91.13;100103.19;4827547;28;20058;-67
2022/12/28 12:57:21;;;;;;;17.02;9.45;;;;;;;-2.27;90.69;100109.09;4875922;28;20049;-65
2022/12/28 13:00:15;;;;;;;16.15;9.48;;;;;;;-2.38;90.55;100085.72;4844845;28;20191;-65
2022/12/28 13:03:26;;;;;;;19.85;10.55;;;;;;;-2.20;90.69;100096.56;4794388;28;20060;-63
2022/12/28 13:06:22;;;;;;;21.33;10.02;;;;;;;-2.08;91.00;100100.31;4858117;28;20052;-67
2022/12/28 13:09:15;;;;;;;28.95;13.20;;;;;;;-2.19;90.76;100095.75;4842815;28;20096;-67
2022/12/28 13:12:02;;;;;;;20.27;11.18;;;;;;;-2.19;90.90;100095.75;4821996;28;20046;-66
2022/12/28 13:18:21;;;;;;;16.27;10.20;;;;;;;-2.15;91.12;100100.94;4854342;28;20046;-72
2022/12/28 13:24:29;;;;;;;16.95;9.32;;;;;;;-2.15;91.41;100095.81;4928689;28;20064;-68
2022/12/28 13:27:22;;;;;;;20.27;10.27;;;;;;;-2.10;91.65;100096.84;4931010;28;20064;-66
2022/12/28 13:30:09;;;;;;;21.23;10.50;;;;;;;-2.23;91.67;100096.44;4911191;28;20058;-65
2022/12/28 13:32:53;;;;;;;20.23;9.65;;;;;;;-2.29;92.03;100091.16;4945735;28;20049;-66
2022/12/28 13:36:11;;;;;;;20.05;9.98;;;;;;;-2.38;92.03;100089.13;4897088;28;20048;-68
2022/12/28 13:39:03;;;;;;;13.75;7.88;;;;;;;-2.58;92.52;100071.41;4888891;28;20078;-67
2022/12/28 13:41:43;;;;;;;15.20;7.80;;;;;;;-2.84;92.25;100043.28;4952117;28;20050;-68
2022/12/28 13:47:51;;;;;;;16.77;9.40;;;;;;;-2.50;92.78;100091.28;4938141;28;20141;-68
2022/12/28 13:50:52;;;;;;;16.17;9.02;;;;;;;-2.49;93.28;100087.06;4907326;28;20060;-67
2022/12/28 13:53:36;;;;;;;21.10;10.00;;;;;;;-2.53;93.46;100074.97;4879000;28;20039;-68
2022/12/28 13:56:22;;;;;;;20.25;9.50;;;;;;;-2.47;94.02;100064.94;4933623;28;20060;-67
2022/12/28 13:59:03;;;;;;;21.60;10.77;;;;;;;-2.71;93.30;100045.41;4936954;28;20044;-66
2022/12/28 14:01:48;;;;;;;26.13;10.88;;;;;;;-2.63;93.67;100069.56;4940659;28;20074;-67
2022/12/28 14:04:34;;;;;;;31.48;11.68;;;;;;;-2.66;93.42;100068.59;4882394;28;20053;-66
2022/12/28 14:07:34;;;;;;;26.15;11.88;;;;;;;-2.69;93.39;100069.34;4896889;28;20066;-67
2022/12/28 14:10:24;;;;;;;23.40;11.73;;;;;;;-2.68;93.25;100065.97;4926334;28;20043;-67
2022/12/28 14:13:11;;;;;;;23.23;12.35;;;;;;;-2.76;92.63;100064.84;4915663;28;20306;-65
2022/12/28 14:15:58;;;;;;;23.40;11.85;;;;;;;-2.89;92.21;100068.69;4899463;28;20119;-64
2022/12/28 14:18:49;;;;;;;26.67;12.05;;;;;;;-3.81;91.86;99935.16;4881711;28;20044;-67
2022/12/28 14:21:44;;;;;;;20.08;10.95;;;;;;;-3.13;91.52;100061.00;4890909;28;20046;-66
2022/12/28 14:24:26;;;;;;;20.77;10.63;;;;;;;-3.28;91.53;100055.38;4933656;28;20059;-64
2022/12/28 14:27:24;;;;;;;21.92;10.82;;;;;;;-3.25;91.15;100063.13;4828856;28;20244;-65
2022/12/28 14:30:23;;;;;;;25.38;11.93;;;;;;;-3.64;90.45;100014.91;4865828;28;20060;-66
2022/12/28 14:33:16;;;;;;;20.73;11.77;;;;;;;-4.29;90.12;99918.91;4954364;28;20046;-66
2022/12/28 14:36:10;;;;;;;23.10;12.15;;;;;;;-3.87;89.46;100000.41;4942800;28;20050;-64
2022/12/28 14:38:55;;;;;;;29.30;13.88;;;;;;;-3.74;88.86;100053.69;4933527;28;20044;-66
2022/12/28 14:41:49;;;;;;;28.08;11.50;;;;;;;-3.95;88.50;100029.06;4904655;28;20147;-64
2022/12/28 14:44:41;;;;;;;21.88;10.35;;;;;;;-3.93;88.43;100029.16;4932837;28;20052;-66
2022/12/28 14:47:50;;;;;;;24.58;10.52;;;;;;;-4.01;87.99;100039.06;4866640;28;20050;-64
2022/12/28 14:50:37;;;;;;;24.27;11.07;;;;;;;-4.44;87.10;99981.28;4944939;28;20036;-65
2022/12/28 14:56:10;;;;;;;18.77;9.00;;;;;;;-4.30;87.08;100024.31;4945129;28;20051;-65
2022/12/28 14:59:05;;;;;;;17.00;7.68;;;;;;;-4.43;86.84;100017.84;4907309;28;20044;-65
2022/12/28 15:01:55;;;;;;;15.68;6.40;;;;;;;-4.38;86.98;100012.13;4922603;28;20044;-65
2022/12/28 15:04:50;;;;;;;14.50;6.00;;;;;;;-4.33;86.99;100009.75;4960548;28;20044;-65
2022/12/28 15:07:38;;;;;;;14.82;4.70;;;;;;;-4.31;86.43;100007.28;4923215;28;20054;-62
2022/12/28 15:10:17;;;;;;;15.80;5.65;;;;;;;-4.31;86.04;100018.34;4906843;28;20052;-60
2022/12/28 15:13:01;;;;;;;12.45;5.10;;;;;;;-4.34;85.37;100014.00;4913899;28;20071;-65
2022/12/28 15:15:44;;;;;;;9.48;4.78;;;;;;;-4.60;84.77;99984.88;4908101;28;20067;-67
2022/12/28 15:18:23;;;;;;;13.82;4.75;;;;;;;-4.53;84.28;99998.75;4929196;28;20046;-61
2022/12/28 15:21:17;;;;;;;11.50;4.72;;;;;;;-4.57;84.06;99995.22;4921397;28;20118;-65
2022/12/28 15:26:57;;;;;;;11.10;4.30;;;;;;;-4.53;83.94;100014.06;4941239;28;20044;-63
2022/12/28 15:29:35;;;;;;;9.07;4.43;;;;;;;-4.55;83.73;100015.69;4911823;28;20048;-65